sensor_id;sensor_type;location;lat;lon;timestamp;P1;durP1;ratioP1;P2;durP2;ratioP2
7316;SDS011;3699;51.462;6.696;2023-12-29T00:01:29;8.10;;;2.40;;
7316;SDS011;3699;51.462;6.696;2023-12-29T00:03:56;9.40;;;2.27;;
7316;SDS011;3699;51.462;6.696;2023-12-29T00:06:23;11.17;;;2.07;;
7316;SDS011;3699;51.462;6.696;2023-12-29T00:08:49;6.70;;;2.23;;
7316;SDS011;3699;51.462;6.696;2023-12-29T00:11:16;5.80;;;2.30;;
7316;SDS011;3699;51.462;6.696;2023-12-29T00:13:43;6.17;;;1.87;;
7316;SDS011;3699;51.462;6.696;2023-12-29T00:16:11;10.30;;;2.23;;
7316;SDS011;3699;51.462;6.696;2023-12-29T00:18:38;10.30;;;2.30;;
7316;SDS011;3699;51.462;6.696;2023-12-29T00:21:05;3.87;;;1.80;;
7316;SDS011;3699;51.462;6.696;2023-12-29T00:23:32;3.33;;;1.80;;
7316;SDS011;3699;51.462;6.696;2023-12-29T00:25:59;6.90;;;2.13;;
7316;SDS011;3699;51.462;6.696;2023-12-29T00:28:25;7.97;;;2.07;;
7316;SDS011;3699;51.462;6.696;2023-12-29T00:30:52;5.60;;;2.00;;
7316;SDS011;3699;51.462;6.696;2023-12-29T00:33:20;8.57;;;2.07;;
7316;SDS011;3699;51.462;6.696;2023-12-29T00:35:47;6.13;;;1.90;;
7316;SDS011;3699;51.462;6.696;2023-12-29T00:38:13;10.50;;;2.20;;
7316;SDS011;3699;51.462;6.696;2023-12-29T00:40:39;8.83;;;1.90;;
7316;SDS011;3699;51.462;6.696;2023-12-29T00:43:06;7.87;;;2.00;;
7316;SDS011;3699;51.462;6.696;2023-12-29T00:45:33;7.40;;;1.90;;
7316;SDS011;3699;51.462;6.696;2023-12-29T00:48:01;7.13;;;3.30;;
7316;SDS011;3699;51.462;6.696;2023-12-29T00:50:35;5.47;;;1.90;;
7316;SDS011;3699;51.462;6.696;2023-12-29T00:53:02;4.83;;;1.80;;
7316;SDS011;3699;51.462;6.696;2023-12-29T00:55:28;5.57;;;2.07;;
7316;SDS011;3699;51.462;6.696;2023-12-29T00:57:55;5.90;;;2.23;;
7316;SDS011;3699;51.462;6.696;2023-12-29T01:00:22;4.87;;;2.30;;
7316;SDS011;3699;51.462;6.696;2023-12-29T01:02:48;3.63;;;1.97;;
7316;SDS011;3699;51.462;6.696;2023-12-29T01:05:15;6.33;;;2.27;;
7316;SDS011;3699;51.462;6.696;2023-12-29T01:07:43;5.90;;;2.33;;
7316;SDS011;3699;51.462;6.696;2023-12-29T01:10:10;6.37;;;2.17;;
7316;SDS011;3699;51.462;6.696;2023-12-29T01:12:37;5.57;;;2.00;;
7316;SDS011;3699;51.462;6.696;2023-12-29T01:15:04;8.63;;;2.10;;
7316;SDS011;3699;51.462;6.696;2023-12-29T01:17:31;12.10;;;3.00;;
7316;SDS011;3699;51.462;6.696;2023-12-29T01:19:57;8.17;;;2.10;;
7316;SDS011;3699;51.462;6.696;2023-12-29T01:22:24;4.03;;;1.70;;
7316;SDS011;3699;51.462;6.696;2023-12-29T01:24:52;6.23;;;2.00;;
7316;SDS011;3699;51.462;6.696;2023-12-29T01:27:18;5.83;;;2.50;;
7316;SDS011;3699;51.462;6.696;2023-12-29T01:29:45;7.30;;;2.00;;
7316;SDS011;3699;51.462;6.696;2023-12-29T01:32:12;8.97;;;2.50;;
7316;SDS011;3699;51.462;6.696;2023-12-29T01:34:39;4.70;;;2.00;;
7316;SDS011;3699;51.462;6.696;2023-12-29T01:37:05;5.77;;;2.50;;
7316;SDS011;3699;51.462;6.696;2023-12-29T01:39:33;6.80;;;2.13;;
7316;SDS011;3699;51.462;6.696;2023-12-29T01:42:02;12.17;;;2.60;;
7316;SDS011;3699;51.462;6.696;2023-12-29T01:44:28;7.10;;;2.30;;
7316;SDS011;3699;51.462;6.696;2023-12-29T01:46:57;4.47;;;2.30;;
7316;SDS011;3699;51.462;6.696;2023-12-29T01:49:26;8.33;;;2.87;;
7316;SDS011;3699;51.462;6.696;2023-12-29T01:51:55;8.23;;;2.20;;
7316;SDS011;3699;51.462;6.696;2023-12-29T01:54:24;10.80;;;2.30;;
7316;SDS011;3699;51.462;6.696;2023-12-29T01:56:54;2.93;;;2.27;;
7316;SDS011;3699;51.462;6.696;2023-12-29T01:59:26;9.30;;;2.50;;
7316;SDS011;3699;51.462;6.696;2023-12-29T02:01:53;7.33;;;2.17;;
7316;SDS011;3699;51.462;6.696;2023-12-29T02:04:21;15.73;;;3.23;;
7316;SDS011;3699;51.462;6.696;2023-12-29T02:06:50;6.10;;;2.30;;
7316;SDS011;3699;51.462;6.696;2023-12-29T02:09:17;6.13;;;2.60;;
7316;SDS011;3699;51.462;6.696;2023-12-29T02:11:44;7.73;;;3.03;;
7316;SDS011;3699;51.462;6.696;2023-12-29T02:14:11;11.67;;;3.40;;
7316;SDS011;3699;51.462;6.696;2023-12-29T02:16:40;7.50;;;2.20;;
7316;SDS011;3699;51.462;6.696;2023-12-29T02:19:18;6.70;;;2.80;;
7316;SDS011;3699;51.462;6.696;2023-12-29T02:21:51;10.13;;;2.70;;
7316;SDS011;3699;51.462;6.696;2023-12-29T02:24:17;6.87;;;3.07;;
7316;SDS011;3699;51.462;6.696;2023-12-29T02:26:47;12.10;;;2.60;;
7316;SDS011;3699;51.462;6.696;2023-12-29T02:29:19;12.13;;;3.20;;
7316;SDS011;3699;51.462;6.696;2023-12-29T02:31:51;7.57;;;2.63;;
7316;SDS011;3699;51.462;6.696;2023-12-29T02:34:20;9.67;;;2.63;;
7316;SDS011;3699;51.462;6.696;2023-12-29T02:36:49;8.57;;;2.93;;
7316;SDS011;3699;51.462;6.696;2023-12-29T02:39:17;8.37;;;2.40;;
7316;SDS011;3699;51.462;6.696;2023-12-29T02:41:45;5.20;;;2.63;;
7316;SDS011;3699;51.462;6.696;2023-12-29T02:44:12;9.60;;;3.70;;
7316;SDS011;3699;51.462;6.696;2023-12-29T02:46:39;9.97;;;2.87;;
7316;SDS011;3699;51.462;6.696;2023-12-29T02:49:06;8.03;;;3.33;;
7316;SDS011;3699;51.462;6.696;2023-12-29T02:51:36;9.17;;;2.33;;
7316;SDS011;3699;51.462;6.696;2023-12-29T02:54:03;8.00;;;3.03;;
7316;SDS011;3699;51.462;6.696;2023-12-29T02:56:31;11.13;;;2.80;;
7316;SDS011;3699;51.462;6.696;2023-12-29T02:58:59;9.10;;;2.80;;
7316;SDS011;3699;51.462;6.696;2023-12-29T03:01:25;7.23;;;2.83;;
7316;SDS011;3699;51.462;6.696;2023-12-29T03:03:53;9.33;;;3.30;;
7316;SDS011;3699;51.462;6.696;2023-12-29T03:06:20;13.00;;;3.63;;
7316;SDS011;3699;51.462;6.696;2023-12-29T03:08:47;9.90;;;2.70;;
7316;SDS011;3699;51.462;6.696;2023-12-29T03:11:14;8.37;;;2.80;;
7316;SDS011;3699;51.462;6.696;2023-12-29T03:13:40;11.67;;;3.60;;
7316;SDS011;3699;51.462;6.696;2023-12-29T03:16:08;9.47;;;2.70;;
7316;SDS011;3699;51.462;6.696;2023-12-29T03:18:35;11.70;;;3.03;;
7316;SDS011;3699;51.462;6.696;2023-12-29T03:21:04;8.13;;;3.27;;
7316;SDS011;3699;51.462;6.696;2023-12-29T03:23:32;9.47;;;3.83;;
7316;SDS011;3699;51.462;6.696;2023-12-29T03:25:59;7.07;;;2.73;;
7316;SDS011;3699;51.462;6.696;2023-12-29T03:28:26;9.87;;;2.87;;
7316;SDS011;3699;51.462;6.696;2023-12-29T03:30:52;16.77;;;4.50;;
7316;SDS011;3699;51.462;6.696;2023-12-29T03:33:20;5.53;;;2.70;;
7316;SDS011;3699;51.462;6.696;2023-12-29T03:35:47;13.13;;;2.53;;
7316;SDS011;3699;51.462;6.696;2023-12-29T03:38:14;9.43;;;2.40;;
7316;SDS011;3699;51.462;6.696;2023-12-29T03:40:41;9.00;;;2.63;;
7316;SDS011;3699;51.462;6.696;2023-12-29T03:43:08;4.73;;;2.33;;
7316;SDS011;3699;51.462;6.696;2023-12-29T03:45:34;6.47;;;2.40;;
7316;SDS011;3699;51.462;6.696;2023-12-29T03:48:01;9.83;;;2.67;;
7316;SDS011;3699;51.462;6.696;2023-12-29T03:50:29;7.20;;;2.50;;
7316;SDS011;3699;51.462;6.696;2023-12-29T03:52:56;3.83;;;2.13;;
7316;SDS011;3699;51.462;6.696;2023-12-29T03:55:23;8.53;;;2.60;;
7316;SDS011;3699;51.462;6.696;2023-12-29T03:57:50;7.33;;;2.47;;
7316;SDS011;3699;51.462;6.696;2023-12-29T04:00:16;12.53;;;3.03;;
7316;SDS011;3699;51.462;6.696;2023-12-29T04:02:43;7.33;;;2.60;;
7316;SDS011;3699;51.462;6.696;2023-12-29T04:05:10;9.07;;;2.60;;
7316;SDS011;3699;51.462;6.696;2023-12-29T04:07:39;7.10;;;3.07;;
7316;SDS011;3699;51.462;6.696;2023-12-29T04:10:06;7.47;;;2.33;;
7316;SDS011;3699;51.462;6.696;2023-12-29T04:12:34;12.40;;;2.50;;
7316;SDS011;3699;51.462;6.696;2023-12-29T04:15:00;8.00;;;2.77;;
7316;SDS011;3699;51.462;6.696;2023-12-29T04:17:27;14.40;;;3.33;;
7316;SDS011;3699;51.462;6.696;2023-12-29T04:19:54;6.83;;;2.40;;
7316;SDS011;3699;51.462;6.696;2023-12-29T04:22:20;10.40;;;3.27;;
7316;SDS011;3699;51.462;6.696;2023-12-29T04:24:49;7.67;;;2.63;;
7316;SDS011;3699;51.462;6.696;2023-12-29T04:27:16;10.67;;;2.87;;
7316;SDS011;3699;51.462;6.696;2023-12-29T04:29:43;9.67;;;3.43;;
7316;SDS011;3699;51.462;6.696;2023-12-29T04:32:10;9.30;;;2.90;;
7316;SDS011;3699;51.462;6.696;2023-12-29T04:34:37;7.07;;;2.50;;
7316;SDS011;3699;51.462;6.696;2023-12-29T04:37:04;4.77;;;2.00;;
7316;SDS011;3699;51.462;6.696;2023-12-29T04:39:31;6.43;;;2.00;;
7316;SDS011;3699;51.462;6.696;2023-12-29T04:41:59;9.03;;;2.77;;
7316;SDS011;3699;51.462;6.696;2023-12-29T04:44:26;7.23;;;2.70;;
7316;SDS011;3699;51.462;6.696;2023-12-29T04:46:52;5.60;;;2.60;;
7316;SDS011;3699;51.462;6.696;2023-12-29T04:49:19;7.83;;;2.20;;
7316;SDS011;3699;51.462;6.696;2023-12-29T04:51:46;8.10;;;2.20;;
7316;SDS011;3699;51.462;6.696;2023-12-29T04:54:13;6.90;;;2.37;;
7316;SDS011;3699;51.462;6.696;2023-12-29T04:56:40;5.37;;;2.23;;
7316;SDS011;3699;51.462;6.696;2023-12-29T04:59:08;14.03;;;2.43;;
7316;SDS011;3699;51.462;6.696;2023-12-29T05:01:35;6.43;;;2.10;;
7316;SDS011;3699;51.462;6.696;2023-12-29T05:04:01;8.10;;;2.60;;
7316;SDS011;3699;51.462;6.696;2023-12-29T05:06:28;8.63;;;2.10;;
7316;SDS011;3699;51.462;6.696;2023-12-29T05:08:55;6.27;;;2.20;;
7316;SDS011;3699;51.462;6.696;2023-12-29T05:11:22;20.40;;;2.90;;
7316;SDS011;3699;51.462;6.696;2023-12-29T05:13:48;7.83;;;2.73;;
7316;SDS011;3699;51.462;6.696;2023-12-29T05:16:16;9.47;;;3.00;;
7316;SDS011;3699;51.462;6.696;2023-12-29T05:18:43;12.60;;;2.73;;
7316;SDS011;3699;51.462;6.696;2023-12-29T05:21:13;10.47;;;2.30;;
7316;SDS011;3699;51.462;6.696;2023-12-29T05:23:40;8.87;;;2.37;;
7316;SDS011;3699;51.462;6.696;2023-12-29T05:26:07;7.80;;;2.37;;
7316;SDS011;3699;51.462;6.696;2023-12-29T05:28:34;8.13;;;2.53;;
7316;SDS011;3699;51.462;6.696;2023-12-29T05:31:01;7.40;;;2.10;;
7316;SDS011;3699;51.462;6.696;2023-12-29T05:33:29;8.80;;;2.77;;
7316;SDS011;3699;51.462;6.696;2023-12-29T05:35:56;6.83;;;2.00;;
7316;SDS011;3699;51.462;6.696;2023-12-29T05:38:23;5.67;;;2.60;;
7316;SDS011;3699;51.462;6.696;2023-12-29T05:40:50;6.87;;;2.17;;
7316;SDS011;3699;51.462;6.696;2023-12-29T05:43:17;12.90;;;2.67;;
7316;SDS011;3699;51.462;6.696;2023-12-29T05:45:44;9.63;;;2.67;;
7316;SDS011;3699;51.462;6.696;2023-12-29T05:48:11;8.83;;;2.80;;
7316;SDS011;3699;51.462;6.696;2023-12-29T05:50:39;4.97;;;2.23;;
7316;SDS011;3699;51.462;6.696;2023-12-29T05:53:06;9.53;;;2.40;;
7316;SDS011;3699;51.462;6.696;2023-12-29T05:55:32;4.30;;;2.10;;
7316;SDS011;3699;51.462;6.696;2023-12-29T05:57:59;10.23;;;2.70;;
7316;SDS011;3699;51.462;6.696;2023-12-29T06:00:26;10.47;;;2.47;;
7316;SDS011;3699;51.462;6.696;2023-12-29T06:02:52;12.87;;;3.27;;
7316;SDS011;3699;51.462;6.696;2023-12-29T06:05:19;12.40;;;2.30;;
7316;SDS011;3699;51.462;6.696;2023-12-29T06:07:47;4.93;;;2.00;;
7316;SDS011;3699;51.462;6.696;2023-12-29T06:10:14;4.70;;;2.10;;
7316;SDS011;3699;51.462;6.696;2023-12-29T06:12:41;7.87;;;2.07;;
7316;SDS011;3699;51.462;6.696;2023-12-29T06:15:08;7.63;;;2.10;;
7316;SDS011;3699;51.462;6.696;2023-12-29T06:17:35;6.80;;;2.73;;
7316;SDS011;3699;51.462;6.696;2023-12-29T06:20:02;4.13;;;2.07;;
7316;SDS011;3699;51.462;6.696;2023-12-29T06:22:30;9.07;;;2.87;;
7316;SDS011;3699;51.462;6.696;2023-12-29T06:24:58;7.80;;;2.97;;
7316;SDS011;3699;51.462;6.696;2023-12-29T06:27:25;11.37;;;2.83;;
7316;SDS011;3699;51.462;6.696;2023-12-29T06:29:53;7.47;;;2.67;;
7316;SDS011;3699;51.462;6.696;2023-12-29T06:32:19;10.03;;;3.63;;
7316;SDS011;3699;51.462;6.696;2023-12-29T06:34:47;10.27;;;2.60;;
7316;SDS011;3699;51.462;6.696;2023-12-29T06:37:13;4.70;;;2.20;;
7316;SDS011;3699;51.462;6.696;2023-12-29T06:39:40;8.83;;;2.60;;
7316;SDS011;3699;51.462;6.696;2023-12-29T06:42:08;4.10;;;2.23;;
7316;SDS011;3699;51.462;6.696;2023-12-29T06:44:35;8.30;;;2.60;;
7316;SDS011;3699;51.462;6.696;2023-12-29T06:47:01;10.07;;;2.70;;
7316;SDS011;3699;51.462;6.696;2023-12-29T06:49:30;8.77;;;2.10;;
7316;SDS011;3699;51.462;6.696;2023-12-29T06:51:57;8.53;;;3.17;;
7316;SDS011;3699;51.462;6.696;2023-12-29T06:54:24;11.00;;;2.47;;
7316;SDS011;3699;51.462;6.696;2023-12-29T06:56:51;9.83;;;2.70;;
7316;SDS011;3699;51.462;6.696;2023-12-29T06:59:19;9.03;;;2.90;;
7316;SDS011;3699;51.462;6.696;2023-12-29T07:01:46;6.70;;;2.30;;
7316;SDS011;3699;51.462;6.696;2023-12-29T07:04:12;5.67;;;1.90;;
7316;SDS011;3699;51.462;6.696;2023-12-29T07:06:40;9.43;;;2.10;;
7316;SDS011;3699;51.462;6.696;2023-12-29T07:09:07;6.90;;;2.30;;
7316;SDS011;3699;51.462;6.696;2023-12-29T07:11:34;12.70;;;3.97;;
7316;SDS011;3699;51.462;6.696;2023-12-29T07:14:01;4.13;;;1.83;;
7316;SDS011;3699;51.462;6.696;2023-12-29T07:16:29;12.73;;;3.00;;
7316;SDS011;3699;51.462;6.696;2023-12-29T07:18:56;5.60;;;2.20;;
7316;SDS011;3699;51.462;6.696;2023-12-29T07:21:23;5.17;;;2.77;;
7316;SDS011;3699;51.462;6.696;2023-12-29T07:23:50;7.77;;;2.10;;
7316;SDS011;3699;51.462;6.696;2023-12-29T07:26:16;9.90;;;3.37;;
7316;SDS011;3699;51.462;6.696;2023-12-29T07:28:43;7.37;;;2.40;;
7316;SDS011;3699;51.462;6.696;2023-12-29T07:31:10;14.57;;;2.70;;
7316;SDS011;3699;51.462;6.696;2023-12-29T07:33:38;6.43;;;2.43;;
7316;SDS011;3699;51.462;6.696;2023-12-29T07:36:05;8.13;;;2.57;;
7316;SDS011;3699;51.462;6.696;2023-12-29T07:38:32;7.43;;;2.27;;
7316;SDS011;3699;51.462;6.696;2023-12-29T07:40:59;6.80;;;3.00;;
7316;SDS011;3699;51.462;6.696;2023-12-29T07:43:27;9.07;;;2.60;;
7316;SDS011;3699;51.462;6.696;2023-12-29T07:45:54;8.07;;;2.90;;
7316;SDS011;3699;51.462;6.696;2023-12-29T07:48:20;7.93;;;2.80;;
7316;SDS011;3699;51.462;6.696;2023-12-29T07:50:49;8.77;;;2.53;;
7316;SDS011;3699;51.462;6.696;2023-12-29T07:53:15;11.67;;;2.20;;
7316;SDS011;3699;51.462;6.696;2023-12-29T07:55:42;6.27;;;2.40;;
7316;SDS011;3699;51.462;6.696;2023-12-29T07:58:11;7.07;;;2.17;;
7316;SDS011;3699;51.462;6.696;2023-12-29T08:00:38;10.47;;;3.33;;
7316;SDS011;3699;51.462;6.696;2023-12-29T08:03:05;7.57;;;3.43;;
7316;SDS011;3699;51.462;6.696;2023-12-29T08:05:32;7.70;;;1.90;;
7316;SDS011;3699;51.462;6.696;2023-12-29T08:08:01;9.07;;;2.50;;
7316;SDS011;3699;51.462;6.696;2023-12-29T08:10:28;4.63;;;2.07;;
7316;SDS011;3699;51.462;6.696;2023-12-29T08:12:54;9.07;;;2.63;;
7316;SDS011;3699;51.462;6.696;2023-12-29T08:15:21;8.10;;;2.10;;
7316;SDS011;3699;51.462;6.696;2023-12-29T08:17:48;9.93;;;2.47;;
7316;SDS011;3699;51.462;6.696;2023-12-29T08:20:14;8.20;;;1.93;;
7316;SDS011;3699;51.462;6.696;2023-12-29T08:22:41;6.90;;;3.07;;
7316;SDS011;3699;51.462;6.696;2023-12-29T08:25:10;7.43;;;1.70;;
7316;SDS011;3699;51.462;6.696;2023-12-29T08:27:37;9.03;;;2.20;;
7316;SDS011;3699;51.462;6.696;2023-12-29T08:30:04;7.57;;;2.37;;
7316;SDS011;3699;51.462;6.696;2023-12-29T08:32:32;5.07;;;2.07;;
7316;SDS011;3699;51.462;6.696;2023-12-29T08:34:59;7.30;;;2.60;;
7316;SDS011;3699;51.462;6.696;2023-12-29T08:37:26;5.53;;;2.17;;
7316;SDS011;3699;51.462;6.696;2023-12-29T08:39:52;7.33;;;2.70;;
7316;SDS011;3699;51.462;6.696;2023-12-29T08:42:21;4.27;;;2.10;;
7316;SDS011;3699;51.462;6.696;2023-12-29T08:44:48;8.03;;;1.80;;
7316;SDS011;3699;51.462;6.696;2023-12-29T08:47:15;5.17;;;1.97;;
7316;SDS011;3699;51.462;6.696;2023-12-29T08:49:41;5.03;;;1.90;;
7316;SDS011;3699;51.462;6.696;2023-12-29T08:52:08;3.43;;;1.90;;
7316;SDS011;3699;51.462;6.696;2023-12-29T08:54:35;6.80;;;2.07;;
7316;SDS011;3699;51.462;6.696;2023-12-29T08:57:02;8.57;;;2.00;;
7316;SDS011;3699;51.462;6.696;2023-12-29T08:59:30;7.97;;;2.03;;
7316;SDS011;3699;51.462;6.696;2023-12-29T09:01:57;7.87;;;2.07;;
7316;SDS011;3699;51.462;6.696;2023-12-29T09:04:24;4.53;;;1.83;;
7316;SDS011;3699;51.462;6.696;2023-12-29T09:06:51;3.30;;;2.20;;
7316;SDS011;3699;51.462;6.696;2023-12-29T09:09:17;5.07;;;1.70;;
7316;SDS011;3699;51.462;6.696;2023-12-29T09:11:44;8.77;;;1.90;;
7316;SDS011;3699;51.462;6.696;2023-12-29T09:14:12;3.00;;;1.53;;
7316;SDS011;3699;51.462;6.696;2023-12-29T09:16:40;3.27;;;1.70;;
7316;SDS011;3699;51.462;6.696;2023-12-29T09:19:07;2.30;;;1.30;;
7316;SDS011;3699;51.462;6.696;2023-12-29T09:21:34;2.30;;;1.00;;
7316;SDS011;3699;51.462;6.696;2023-12-29T09:24:01;1.90;;;1.30;;
7316;SDS011;3699;51.462;6.696;2023-12-29T09:26:27;4.00;;;1.20;;
7316;SDS011;3699;51.462;6.696;2023-12-29T09:28:54;1.10;;;1.10;;
7316;SDS011;3699;51.462;6.696;2023-12-29T09:31:21;1.37;;;1.27;;
7316;SDS011;3699;51.462;6.696;2023-12-29T09:33:49;1.43;;;1.20;;
7316;SDS011;3699;51.462;6.696;2023-12-29T09:36:15;6.20;;;1.50;;
7316;SDS011;3699;51.462;6.696;2023-12-29T09:38:42;2.63;;;1.50;;
7316;SDS011;3699;51.462;6.696;2023-12-29T09:41:13;4.47;;;2.13;;
7316;SDS011;3699;51.462;6.696;2023-12-29T09:43:41;1.93;;;1.10;;
7316;SDS011;3699;51.462;6.696;2023-12-29T09:46:09;2.00;;;1.13;;
7316;SDS011;3699;51.462;6.696;2023-12-29T09:48:38;3.60;;;1.30;;
7316;SDS011;3699;51.462;6.696;2023-12-29T09:51:08;2.07;;;1.27;;
7316;SDS011;3699;51.462;6.696;2023-12-29T09:53:36;1.77;;;1.33;;
7316;SDS011;3699;51.462;6.696;2023-12-29T09:56:04;1.03;;;0.93;;
7316;SDS011;3699;51.462;6.696;2023-12-29T09:58:33;1.50;;;1.40;;
7316;SDS011;3699;51.462;6.696;2023-12-29T10:01:03;2.40;;;1.17;;
7316;SDS011;3699;51.462;6.696;2023-12-29T10:03:31;3.63;;;1.20;;
7316;SDS011;3699;51.462;6.696;2023-12-29T10:05:59;3.30;;;1.00;;
7316;SDS011;3699;51.462;6.696;2023-12-29T10:08:30;1.00;;;1.00;;
7316;SDS011;3699;51.462;6.696;2023-12-29T10:11:00;1.63;;;1.20;;
7316;SDS011;3699;51.462;6.696;2023-12-29T10:13:28;1.10;;;1.10;;
7316;SDS011;3699;51.462;6.696;2023-12-29T10:16:01;2.70;;;1.30;;
7316;SDS011;3699;51.462;6.696;2023-12-29T10:18:37;1.93;;;1.17;;
7316;SDS011;3699;51.462;6.696;2023-12-29T10:21:12;1.80;;;1.00;;
7316;SDS011;3699;51.462;6.696;2023-12-29T10:23:49;1.30;;;1.20;;
7316;SDS011;3699;51.462;6.696;2023-12-29T10:26:21;1.27;;;1.20;;
7316;SDS011;3699;51.462;6.696;2023-12-29T10:28:49;1.40;;;1.30;;
7316;SDS011;3699;51.462;6.696;2023-12-29T10:31:16;2.90;;;1.20;;
7316;SDS011;3699;51.462;6.696;2023-12-29T10:33:43;2.77;;;1.30;;
7316;SDS011;3699;51.462;6.696;2023-12-29T10:36:15;5.23;;;1.57;;
7316;SDS011;3699;51.462;6.696;2023-12-29T10:38:42;1.17;;;1.17;;
7316;SDS011;3699;51.462;6.696;2023-12-29T10:41:14;3.77;;;1.60;;
7316;SDS011;3699;51.462;6.696;2023-12-29T10:43:42;3.37;;;1.80;;
7316;SDS011;3699;51.462;6.696;2023-12-29T10:46:12;5.03;;;1.90;;
7316;SDS011;3699;51.462;6.696;2023-12-29T10:48:40;1.40;;;1.30;;
7316;SDS011;3699;51.462;6.696;2023-12-29T10:51:06;5.03;;;1.73;;
7316;SDS011;3699;51.462;6.696;2023-12-29T10:53:35;1.53;;;1.43;;
7316;SDS011;3699;51.462;6.696;2023-12-29T10:56:03;2.37;;;1.20;;
7316;SDS011;3699;51.462;6.696;2023-12-29T10:58:31;4.00;;;1.83;;
7316;SDS011;3699;51.462;6.696;2023-12-29T11:01:02;1.70;;;1.33;;
7316;SDS011;3699;51.462;6.696;2023-12-29T11:03:41;4.33;;;1.40;;
7316;SDS011;3699;51.462;6.696;2023-12-29T11:06:07;3.13;;;2.23;;
7316;SDS011;3699;51.462;6.696;2023-12-29T11:08:35;4.50;;;1.37;;
7316;SDS011;3699;51.462;6.696;2023-12-29T11:11:02;2.60;;;1.30;;
7316;SDS011;3699;51.462;6.696;2023-12-29T11:13:31;2.03;;;1.03;;
7316;SDS011;3699;51.462;6.696;2023-12-29T11:15:58;4.80;;;2.43;;
7316;SDS011;3699;51.462;6.696;2023-12-29T11:18:26;1.73;;;1.43;;
7316;SDS011;3699;51.462;6.696;2023-12-29T11:20:54;3.10;;;1.53;;
7316;SDS011;3699;51.462;6.696;2023-12-29T11:23:23;3.80;;;1.53;;
7316;SDS011;3699;51.462;6.696;2023-12-29T11:25:49;4.40;;;1.30;;
7316;SDS011;3699;51.462;6.696;2023-12-29T11:28:17;3.97;;;1.50;;
7316;SDS011;3699;51.462;6.696;2023-12-29T11:30:47;2.20;;;1.67;;
7316;SDS011;3699;51.462;6.696;2023-12-29T11:33:14;1.30;;;1.13;;
7316;SDS011;3699;51.462;6.696;2023-12-29T11:35:48;3.70;;;1.63;;
7316;SDS011;3699;51.462;6.696;2023-12-29T11:38:31;1.47;;;1.30;;
7316;SDS011;3699;51.462;6.696;2023-12-29T11:41:08;2.30;;;1.30;;
7316;SDS011;3699;51.462;6.696;2023-12-29T11:43:39;2.50;;;1.50;;
7316;SDS011;3699;51.462;6.696;2023-12-29T11:46:08;3.17;;;1.53;;
7316;SDS011;3699;51.462;6.696;2023-12-29T11:49:04;3.30;;;1.57;;
7316;SDS011;3699;51.462;6.696;2023-12-29T11:51:32;3.57;;;1.63;;
7316;SDS011;3699;51.462;6.696;2023-12-29T11:54:01;2.73;;;1.47;;
7316;SDS011;3699;51.462;6.696;2023-12-29T11:56:31;3.00;;;1.60;;
7316;SDS011;3699;51.462;6.696;2023-12-29T11:59:14;4.80;;;2.27;;
7316;SDS011;3699;51.462;6.696;2023-12-29T12:01:45;3.33;;;1.57;;
7316;SDS011;3699;51.462;6.696;2023-12-29T12:07:06;6.50;;;1.73;;
7316;SDS011;3699;51.462;6.696;2023-12-29T12:09:34;3.57;;;1.80;;
7316;SDS011;3699;51.462;6.696;2023-12-29T12:12:01;1.60;;;1.50;;
7316;SDS011;3699;51.462;6.696;2023-12-29T12:14:45;3.40;;;2.10;;
7316;SDS011;3699;51.462;6.696;2023-12-29T12:17:27;2.80;;;1.33;;
7316;SDS011;3699;51.462;6.696;2023-12-29T12:19:59;1.73;;;1.40;;
7316;SDS011;3699;51.462;6.696;2023-12-29T12:22:29;7.03;;;2.13;;
7316;SDS011;3699;51.462;6.696;2023-12-29T12:24:58;3.43;;;1.70;;
7316;SDS011;3699;51.462;6.696;2023-12-29T12:27:25;2.30;;;2.03;;
7316;SDS011;3699;51.462;6.696;2023-12-29T12:29:53;2.37;;;1.70;;
7316;SDS011;3699;51.462;6.696;2023-12-29T12:32:22;3.60;;;1.70;;
7316;SDS011;3699;51.462;6.696;2023-12-29T12:34:51;4.37;;;1.70;;
7316;SDS011;3699;51.462;6.696;2023-12-29T12:37:21;2.87;;;1.83;;
7316;SDS011;3699;51.462;6.696;2023-12-29T12:39:48;3.43;;;1.47;;
7316;SDS011;3699;51.462;6.696;2023-12-29T12:42:16;2.33;;;1.90;;
7316;SDS011;3699;51.462;6.696;2023-12-29T12:44:46;4.47;;;1.80;;
7316;SDS011;3699;51.462;6.696;2023-12-29T12:47:17;1.90;;;1.70;;
7316;SDS011;3699;51.462;6.696;2023-12-29T12:49:50;4.47;;;1.80;;
7316;SDS011;3699;51.462;6.696;2023-12-29T12:52:17;2.37;;;1.70;;
7316;SDS011;3699;51.462;6.696;2023-12-29T12:54:44;2.90;;;1.83;;
7316;SDS011;3699;51.462;6.696;2023-12-29T12:57:11;4.27;;;1.80;;
7316;SDS011;3699;51.462;6.696;2023-12-29T12:59:39;9.37;;;6.20;;
7316;SDS011;3699;51.462;6.696;2023-12-29T13:02:06;5.37;;;4.60;;
7316;SDS011;3699;51.462;6.696;2023-12-29T13:04:35;6.23;;;3.80;;
7316;SDS011;3699;51.462;6.696;2023-12-29T13:07:03;9.60;;;5.87;;
7316;SDS011;3699;51.462;6.696;2023-12-29T13:09:30;4.83;;;2.90;;
7316;SDS011;3699;51.462;6.696;2023-12-29T13:12:07;5.43;;;2.90;;
7316;SDS011;3699;51.462;6.696;2023-12-29T13:14:34;5.47;;;2.50;;
7316;SDS011;3699;51.462;6.696;2023-12-29T13:17:05;3.20;;;2.63;;
7316;SDS011;3699;51.462;6.696;2023-12-29T13:19:32;4.43;;;2.83;;
7316;SDS011;3699;51.462;6.696;2023-12-29T13:22:00;7.23;;;4.47;;
7316;SDS011;3699;51.462;6.696;2023-12-29T13:24:29;4.77;;;2.70;;
7316;SDS011;3699;51.462;6.696;2023-12-29T13:26:57;5.33;;;2.80;;
7316;SDS011;3699;51.462;6.696;2023-12-29T13:29:28;4.90;;;2.37;;
7316;SDS011;3699;51.462;6.696;2023-12-29T13:32:00;6.53;;;2.10;;
7316;SDS011;3699;51.462;6.696;2023-12-29T13:34:31;2.97;;;1.97;;
7316;SDS011;3699;51.462;6.696;2023-12-29T13:37:05;8.27;;;2.70;;
7316;SDS011;3699;51.462;6.696;2023-12-29T13:39:36;10.97;;;5.30;;
7316;SDS011;3699;51.462;6.696;2023-12-29T13:42:05;11.17;;;5.83;;
7316;SDS011;3699;51.462;6.696;2023-12-29T13:44:35;8.67;;;4.67;;
7316;SDS011;3699;51.462;6.696;2023-12-29T13:47:04;12.03;;;7.53;;
7316;SDS011;3699;51.462;6.696;2023-12-29T13:49:32;11.27;;;5.23;;
7316;SDS011;3699;51.462;6.696;2023-12-29T13:52:01;7.63;;;3.53;;
7316;SDS011;3699;51.462;6.696;2023-12-29T13:54:28;7.27;;;4.13;;
7316;SDS011;3699;51.462;6.696;2023-12-29T13:56:57;6.03;;;3.40;;
7316;SDS011;3699;51.462;6.696;2023-12-29T13:59:29;5.37;;;2.93;;
7316;SDS011;3699;51.462;6.696;2023-12-29T14:01:58;4.53;;;2.80;;
7316;SDS011;3699;51.462;6.696;2023-12-29T14:04:25;4.27;;;2.67;;
7316;SDS011;3699;51.462;6.696;2023-12-29T14:06:52;8.00;;;3.57;;
7316;SDS011;3699;51.462;6.696;2023-12-29T14:09:25;6.83;;;2.27;;
7316;SDS011;3699;51.462;6.696;2023-12-29T14:11:51;2.93;;;2.37;;
7316;SDS011;3699;51.462;6.696;2023-12-29T14:14:22;8.30;;;2.43;;
7316;SDS011;3699;51.462;6.696;2023-12-29T14:16:49;4.87;;;2.50;;
7316;SDS011;3699;51.462;6.696;2023-12-29T14:19:17;2.40;;;2.20;;
7316;SDS011;3699;51.462;6.696;2023-12-29T14:21:44;5.70;;;2.50;;
7316;SDS011;3699;51.462;6.696;2023-12-29T14:24:13;2.73;;;1.70;;
7316;SDS011;3699;51.462;6.696;2023-12-29T14:26:41;3.00;;;2.00;;
7316;SDS011;3699;51.462;6.696;2023-12-29T14:29:11;6.03;;;1.93;;
7316;SDS011;3699;51.462;6.696;2023-12-29T14:31:40;4.90;;;2.23;;
7316;SDS011;3699;51.462;6.696;2023-12-29T14:34:08;4.03;;;2.40;;
7316;SDS011;3699;51.462;6.696;2023-12-29T14:36:35;6.60;;;2.07;;
7316;SDS011;3699;51.462;6.696;2023-12-29T14:39:03;4.10;;;1.70;;
7316;SDS011;3699;51.462;6.696;2023-12-29T14:41:31;2.00;;;1.50;;
7316;SDS011;3699;51.462;6.696;2023-12-29T14:43:58;2.67;;;2.13;;
7316;SDS011;3699;51.462;6.696;2023-12-29T14:46:25;5.33;;;2.57;;
7316;SDS011;3699;51.462;6.696;2023-12-29T14:48:54;6.30;;;1.77;;
7316;SDS011;3699;51.462;6.696;2023-12-29T14:51:23;2.47;;;1.70;;
7316;SDS011;3699;51.462;6.696;2023-12-29T14:53:50;1.90;;;1.30;;
7316;SDS011;3699;51.462;6.696;2023-12-29T14:56:17;3.23;;;1.53;;
7316;SDS011;3699;51.462;6.696;2023-12-29T14:58:44;1.80;;;1.57;;
7316;SDS011;3699;51.462;6.696;2023-12-29T15:01:11;2.17;;;1.40;;
7316;SDS011;3699;51.462;6.696;2023-12-29T15:03:38;5.53;;;1.67;;
7316;SDS011;3699;51.462;6.696;2023-12-29T15:06:06;1.30;;;1.10;;
7316;SDS011;3699;51.462;6.696;2023-12-29T15:08:33;2.90;;;1.70;;
7316;SDS011;3699;51.462;6.696;2023-12-29T15:11:01;3.13;;;2.03;;
7316;SDS011;3699;51.462;6.696;2023-12-29T15:13:28;4.17;;;1.70;;
7316;SDS011;3699;51.462;6.696;2023-12-29T15:15:56;7.80;;;3.10;;
7316;SDS011;3699;51.462;6.696;2023-12-29T15:18:24;13.43;;;6.30;;
7316;SDS011;3699;51.462;6.696;2023-12-29T15:20:51;5.50;;;3.67;;